createdAt,value
2022-09-11T00:01:18.887Z,14.40
2022-09-11T00:03:46.631Z,14.40
2022-09-11T00:06:28.500Z,14.39
2022-09-11T00:08:58.222Z,14.37
2022-09-11T00:11:24.879Z,14.32
2022-09-11T00:13:52.392Z,14.35
2022-09-11T00:16:26.235Z,14.36
2022-09-11T00:18:54.041Z,14.43
2022-09-11T00:21:20.949Z,14.37
2022-09-11T00:23:49.208Z,14.40
2022-09-11T00:26:17.254Z,14.37
2022-09-11T00:28:44.540Z,14.36
2022-09-11T00:31:16.641Z,14.39
2022-09-11T00:33:43.710Z,14.40
2022-09-11T00:36:19.157Z,14.40
2022-09-11T00:38:46.146Z,14.38
2022-09-11T00:41:21.851Z,14.40
2022-09-11T00:43:54.170Z,14.37
2022-09-11T00:46:23.555Z,14.34
2022-09-11T00:48:50.103Z,14.35
2022-09-11T00:51:26.772Z,14.30
2022-09-11T00:53:56.225Z,14.29
2022-09-11T00:56:28.151Z,14.30
2022-09-11T00:58:56.361Z,14.30
2022-09-11T01:01:23.024Z,14.32
2022-09-11T01:03:50.060Z,14.36
2022-09-11T01:06:16.828Z,14.33
2022-09-11T01:08:43.299Z,14.37
2022-09-11T01:11:33.549Z,14.33
2022-09-11T01:14:05.951Z,14.32
2022-09-11T01:16:47.838Z,14.31
2022-09-11T01:19:32.514Z,14.32
2022-09-11T01:22:17.845Z,14.32
2022-09-11T01:24:53.128Z,14.31
2022-09-11T01:27:52.084Z,14.33
2022-09-11T01:30:24.138Z,14.33
2022-09-11T01:33:04.635Z,14.38
2022-09-11T01:35:44.292Z,14.40
2022-09-11T01:38:29.821Z,14.35
2022-09-11T01:41:02.369Z,14.34
2022-09-11T01:43:34.022Z,14.33
2022-09-11T01:46:05.131Z,14.22
2022-09-11T01:48:44.719Z,14.18
2022-09-11T01:51:17.322Z,14.15
2022-09-11T01:53:50.129Z,14.14
2022-09-11T01:56:39.885Z,14.21
2022-09-11T01:59:10.298Z,14.23
2022-09-11T02:01:40.955Z,14.29
2022-09-11T02:04:09.725Z,14.32
2022-09-11T02:07:02.154Z,14.33
2022-09-11T02:09:36.961Z,14.36
2022-09-11T02:12:07.175Z,14.36
2022-09-11T02:14:42.861Z,14.41
2022-09-11T02:17:21.565Z,14.43
2022-09-11T02:19:47.944Z,14.38
2022-09-11T02:22:14.557Z,14.41
2022-09-11T02:24:41.065Z,14.41
2022-09-11T02:27:11.242Z,14.36
2022-09-11T02:29:37.843Z,14.38
2022-09-11T02:32:04.314Z,14.32
2022-09-11T02:34:34.312Z,14.33
2022-09-11T02:37:22.633Z,14.39
2022-09-11T02:40:18.758Z,14.46
2022-09-11T02:43:00.471Z,14.44
2022-09-11T02:45:52.456Z,14.49
2022-09-11T02:48:24.529Z,14.49
2022-09-11T02:51:12.624Z,14.42
2022-09-11T02:54:05.016Z,14.35
2022-09-11T02:56:43.381Z,14.32
2022-09-11T02:59:18.079Z,14.42
2022-09-11T03:01:55.953Z,14.41
2022-09-11T03:04:24.020Z,14.43
2022-09-11T03:06:51.365Z,14.45
2022-09-11T03:09:19.042Z,14.44
2022-09-11T03:11:45.864Z,14.48
2022-09-11T03:14:13.011Z,14.50
2022-09-11T03:16:39.643Z,14.43
2022-09-11T03:19:06.590Z,14.48
2022-09-11T03:21:33.546Z,14.48
2022-09-11T03:23:59.880Z,14.51
2022-09-11T03:26:26.385Z,14.54
2022-09-11T03:28:53.073Z,14.53
2022-09-11T03:31:19.892Z,14.46
2022-09-11T03:33:46.467Z,14.48
2022-09-11T03:36:13.852Z,14.44
2022-09-11T03:38:40.153Z,14.48
2022-09-11T03:41:06.818Z,14.45
2022-09-11T03:43:33.231Z,14.47
2022-09-11T03:45:59.930Z,14.47
2022-09-11T03:48:26.859Z,14.52
2022-09-11T03:50:53.177Z,14.53
2022-09-11T03:53:19.497Z,14.54
2022-09-11T03:55:46.772Z,14.47
2022-09-11T03:58:13.419Z,14.42
2022-09-11T04:00:43.628Z,14.41
2022-09-11T04:03:10.841Z,14.42
2022-09-11T04:05:38.017Z,14.43
2022-09-11T04:08:05.464Z,14.44
2022-09-11T04:10:33.269Z,14.46
2022-09-11T04:12:59.755Z,14.47
2022-09-11T04:15:26.066Z,14.47
2022-09-11T04:17:52.478Z,14.46
2022-09-11T04:20:18.937Z,14.43
2022-09-11T04:22:45.372Z,14.46
2022-09-11T04:25:11.682Z,14.51
2022-09-11T04:27:38.079Z,14.48
2022-09-11T04:30:05.965Z,14.49
2022-09-11T04:32:32.490Z,14.49
2022-09-11T04:34:59.147Z,14.42
2022-09-11T04:37:25.644Z,14.42
2022-09-11T04:39:51.976Z,14.43
2022-09-11T04:42:18.371Z,14.46
2022-09-11T04:44:44.939Z,14.47
2022-09-11T04:47:11.237Z,14.49
2022-09-11T04:49:37.636Z,14.49
2022-09-11T04:52:04.174Z,14.50
2022-09-11T04:54:30.529Z,14.51
2022-09-11T04:56:57.163Z,14.51
2022-09-11T04:59:24.068Z,14.48
2022-09-11T05:01:50.719Z,14.50
2022-09-11T05:04:17.528Z,14.50
2022-09-11T05:06:44.499Z,14.49
2022-09-11T05:09:11.321Z,14.44
2022-09-11T05:11:37.824Z,14.47
2022-09-11T05:14:04.185Z,14.49
2022-09-11T05:16:31.106Z,14.51
2022-09-11T05:18:58.159Z,14.47
2022-09-11T05:21:26.375Z,14.49
2022-09-11T05:23:54.871Z,14.48
2022-09-11T05:26:30.574Z,14.45
2022-09-11T05:29:00.470Z,14.46
2022-09-11T05:31:28.178Z,14.44
2022-09-11T05:33:56.187Z,14.42
2022-09-11T05:36:23.888Z,14.41
2022-09-11T05:38:50.243Z,14.43
2022-09-11T05:41:16.622Z,14.47
2022-09-11T05:43:43.369Z,14.49
2022-09-11T05:46:16.044Z,14.49
2022-09-11T05:48:42.482Z,14.52
2022-09-11T05:51:14.310Z,14.54
2022-09-11T05:53:41.612Z,14.58
2022-09-11T05:56:20.139Z,14.64
2022-09-11T05:58:48.282Z,14.66
2022-09-11T06:01:16.959Z,14.63
2022-09-11T06:03:44.045Z,14.59
2022-09-11T06:06:12.523Z,14.61
2022-09-11T06:08:40.702Z,14.65
2022-09-11T06:11:07.812Z,14.65
2022-09-11T06:13:39.183Z,14.64
2022-09-11T06:16:18.787Z,14.60
2022-09-11T06:18:46.974Z,14.69
2022-09-11T06:21:13.722Z,14.71
2022-09-11T06:23:40.363Z,14.74
2022-09-11T06:26:11.895Z,14.79
2022-09-11T06:28:39.776Z,14.81
2022-09-11T06:31:11.940Z,14.86
2022-09-11T06:33:40.077Z,14.92
2022-09-11T06:36:09.924Z,14.89
2022-09-11T06:38:37.105Z,14.86
2022-09-11T06:41:05.712Z,14.95
2022-09-11T06:43:32.794Z,15.01
2022-09-11T06:46:05.978Z,15.04
2022-09-11T06:48:32.414Z,14.96
2022-09-11T06:51:05.986Z,15.01
2022-09-11T06:53:32.869Z,15.07
2022-09-11T06:56:03.902Z,15.06
2022-09-11T06:58:31.133Z,15.09
2022-09-11T07:01:05.014Z,15.02
2022-09-11T07:03:31.891Z,14.93
2022-09-11T07:05:59.388Z,15.00
2022-09-11T07:08:26.122Z,15.00
2022-09-11T07:10:52.628Z,15.00
2022-09-11T07:13:19.276Z,14.97
2022-09-11T07:15:46.258Z,15.06
2022-09-11T07:18:12.589Z,15.10
2022-09-11T07:20:39.580Z,15.19
2022-09-11T07:23:05.946Z,15.30
2022-09-11T07:25:32.637Z,15.39
2022-09-11T07:27:59.127Z,15.48
2022-09-11T07:30:25.538Z,15.36
2022-09-11T07:32:52.029Z,15.42
2022-09-11T07:35:18.480Z,15.53
2022-09-11T07:37:48.920Z,15.69
2022-09-11T07:40:17.176Z,15.84
2022-09-11T07:42:43.710Z,16.02
2022-09-11T07:45:10.594Z,16.11
2022-09-11T07:47:37.006Z,16.10
2022-09-11T07:50:03.475Z,16.35
2022-09-11T07:52:29.792Z,16.56
2022-09-11T07:54:56.422Z,16.67
2022-09-11T07:57:23.054Z,16.71
2022-09-11T07:59:49.664Z,16.73
2022-09-11T08:02:16.303Z,16.83
2022-09-11T08:04:42.645Z,16.75
2022-09-11T08:07:09.068Z,16.78
2022-09-11T08:09:35.533Z,16.84
2022-09-11T08:12:02.280Z,16.77
2022-09-11T08:14:28.842Z,16.48
2022-09-11T08:16:55.339Z,16.36
2022-09-11T08:19:23.579Z,16.33
2022-09-11T08:21:51.529Z,16.42
2022-09-11T08:24:18.482Z,16.48
2022-09-11T08:26:48.795Z,16.41
2022-09-11T08:29:15.736Z,16.50
2022-09-11T08:31:42.093Z,16.53
2022-09-11T08:34:09.620Z,16.53
2022-09-11T08:36:35.940Z,16.57
2022-09-11T08:39:02.353Z,16.64
2022-09-11T08:41:42.284Z,16.98
2022-09-11T08:44:18.854Z,17.14
2022-09-11T08:46:50.690Z,17.07
2022-09-11T08:49:28.375Z,17.03
2022-09-11T08:52:01.404Z,16.91
2022-09-11T08:54:31.656Z,17.12
2022-09-11T08:57:04.122Z,17.17
2022-09-11T08:59:46.539Z,16.97
2022-09-11T09:02:31.684Z,17.35
2022-09-11T09:05:30.396Z,17.38
2022-09-11T09:08:11.085Z,17.59
2022-09-11T09:10:55.902Z,17.49
2022-09-11T09:13:48.699Z,18.43
2022-09-11T09:16:27.360Z,19.40
2022-09-11T09:19:04.860Z,19.79
2022-09-11T09:21:59.237Z,19.92
2022-09-11T09:24:29.909Z,19.53
2022-09-11T09:26:56.620Z,19.98
2022-09-11T09:29:29.539Z,20.10
2022-09-11T09:32:12.867Z,20.25
2022-09-11T09:34:43.181Z,19.76
2022-09-11T09:37:18.253Z,18.96
2022-09-11T09:39:45.714Z,17.92
2022-09-11T09:42:30.737Z,17.11
2022-09-11T09:45:02.812Z,16.77
2022-09-11T09:47:29.232Z,16.50
2022-09-11T09:49:58.264Z,16.60
2022-09-11T09:52:31.735Z,16.54
2022-09-11T09:55:03.434Z,16.47
2022-09-11T09:57:33.088Z,16.64
2022-09-11T10:00:14.535Z,16.81
2022-09-11T10:02:44.863Z,17.13
2022-09-11T10:05:26.508Z,17.49
2022-09-11T10:07:57.125Z,17.81
2022-09-11T10:10:28.077Z,18.04
2022-09-11T10:13:18.119Z,18.12
2022-09-11T10:15:48.872Z,18.76
2022-09-11T10:18:34.180Z,19.56
2022-09-11T10:21:12.821Z,19.32
2022-09-11T10:23:46.539Z,19.20
2022-09-11T10:26:16.721Z,19.06
2022-09-11T10:28:44.580Z,18.85
2022-09-11T10:31:14.637Z,18.87
2022-09-11T10:33:46.243Z,18.89
2022-09-11T10:36:12.623Z,18.70
2022-09-11T10:38:45.218Z,18.79
2022-09-11T10:41:17.479Z,18.84
2022-09-11T10:44:01.503Z,18.88
2022-09-11T10:46:38.652Z,18.80
2022-09-11T10:49:05.020Z,19.30
2022-09-11T10:51:43.093Z,19.08
2022-09-11T10:54:21.679Z,19.21
2022-09-11T10:56:56.727Z,19.28
2022-09-11T10:59:31.907Z,19.20
2022-09-11T11:01:58.288Z,19.67
2022-09-11T11:04:28.008Z,19.61
2022-09-11T11:07:25.578Z,19.61
2022-09-11T11:10:06.571Z,19.43
2022-09-11T11:12:58.808Z,19.54
2022-09-11T11:16:02.000Z,19.23
2022-09-11T11:18:53.131Z,19.15
2022-09-11T11:21:28.620Z,19.16
2022-09-11T11:24:10.918Z,19.10
2022-09-11T11:26:52.631Z,18.99
2022-09-11T11:29:24.725Z,18.83
2022-09-11T11:31:58.205Z,18.93
2022-09-11T11:34:44.228Z,19.00
2022-09-11T11:37:20.746Z,19.39
2022-09-11T11:39:56.778Z,19.70
2022-09-11T11:43:08.489Z,19.65
2022-09-11T11:45:42.983Z,19.82
2022-09-11T11:48:18.696Z,20.18
2022-09-11T11:50:50.143Z,20.63
2022-09-11T11:53:34.684Z,20.60
2022-09-11T11:56:39.769Z,20.86
2022-09-11T11:59:22.872Z,21.27
2022-09-11T12:02:12.802Z,21.39
2022-09-11T12:05:13.334Z,20.75
2022-09-11T12:07:40.258Z,20.41
2022-09-11T12:10:17.916Z,20.89
2022-09-11T12:12:47.982Z,20.81
2022-09-11T12:15:23.232Z,19.90
2022-09-11T12:18:00.441Z,20.69
2022-09-11T12:20:44.698Z,21.01
2022-09-11T12:23:30.124Z,21.89
2022-09-11T12:26:22.633Z,21.91
2022-09-11T12:29:09.759Z,21.44
2022-09-11T12:31:51.573Z,21.69
2022-09-11T12:34:23.372Z,21.59
2022-09-11T12:37:00.160Z,21.38
2022-09-11T12:39:31.134Z,21.21
2022-09-11T12:42:22.350Z,20.71
2022-09-11T12:44:48.698Z,20.91
2022-09-11T12:47:36.275Z,21.28
2022-09-11T12:50:05.343Z,21.41
2022-09-11T12:52:33.873Z,22.24
2022-09-11T12:55:06.637Z,22.27
2022-09-11T12:57:36.100Z,21.95
2022-09-11T13:00:07.249Z,22.22
2022-09-11T13:02:43.044Z,22.47
2022-09-11T13:05:25.926Z,22.67
2022-09-11T13:07:55.907Z,22.48
2022-09-11T13:10:34.475Z,21.68
2022-09-11T13:13:03.120Z,22.28
2022-09-11T13:15:38.093Z,22.53
2022-09-11T13:18:28.545Z,21.87
2022-09-11T13:21:07.309Z,21.40
2022-09-11T13:23:33.680Z,21.54
2022-09-11T13:26:01.675Z,21.00
2022-09-11T13:28:30.272Z,20.92
2022-09-11T13:30:59.750Z,20.61
2022-09-11T13:33:28.150Z,20.57
2022-09-11T13:35:57.547Z,20.45
2022-09-11T13:38:29.565Z,20.45
2022-09-11T13:41:04.920Z,20.28
2022-09-11T13:43:43.145Z,20.29
2022-09-11T13:46:15.923Z,20.53
2022-09-11T13:48:43.429Z,20.65
2022-09-11T13:51:15.025Z,20.88
2022-09-11T13:53:44.662Z,20.70
2022-09-11T13:56:42.484Z,20.43
2022-09-11T13:59:38.864Z,20.24
2022-09-11T14:02:19.556Z,20.14
2022-09-11T14:04:47.085Z,20.16
2022-09-11T14:07:24.713Z,20.11
2022-09-11T14:10:15.186Z,20.05
2022-09-11T14:12:54.373Z,19.99
2022-09-11T14:15:48.014Z,19.80
2022-09-11T14:18:39.307Z,19.79
2022-09-11T14:21:31.938Z,19.68
2022-09-11T14:23:59.240Z,19.83
2022-09-11T14:26:41.091Z,19.92
2022-09-11T14:29:31.362Z,20.14
2022-09-11T14:32:31.654Z,20.49
2022-09-11T14:34:59.197Z,20.50
2022-09-11T14:37:27.977Z,20.48
2022-09-11T14:39:59.732Z,20.59
2022-09-11T14:42:29.991Z,20.49
2022-09-11T14:44:56.759Z,20.38
2022-09-11T14:47:25.887Z,20.27
2022-09-11T14:49:54.254Z,20.44
2022-09-11T14:52:27.376Z,20.39
2022-09-11T14:54:54.443Z,20.38
2022-09-11T14:57:30.970Z,20.27
2022-09-11T14:59:58.658Z,20.21
2022-09-11T15:02:27.519Z,20.38
2022-09-11T15:04:56.044Z,20.72
2022-09-11T15:07:23.548Z,20.66
2022-09-11T15:09:51.574Z,20.61
2022-09-11T15:12:17.952Z,20.64
2022-09-11T15:14:56.158Z,20.73
2022-09-11T15:17:23.394Z,20.73
2022-09-11T15:19:49.753Z,20.77
2022-09-11T15:22:17.170Z,20.81
2022-09-11T15:24:43.484Z,20.64
2022-09-11T15:27:09.987Z,20.57
2022-09-11T15:29:36.813Z,20.59
2022-09-11T15:32:04.115Z,20.35
2022-09-11T15:34:30.495Z,20.40
2022-09-11T15:36:57.100Z,20.26
2022-09-11T15:39:23.700Z,20.35
2022-09-11T15:41:50.707Z,20.34
2022-09-11T15:44:20.545Z,20.09
2022-09-11T15:46:51.840Z,20.17
2022-09-11T15:49:19.424Z,19.89
2022-09-11T15:51:45.736Z,19.77
2022-09-11T15:54:12.676Z,19.88
2022-09-11T15:56:39.048Z,19.96
2022-09-11T15:59:05.580Z,19.84
2022-09-11T16:01:34.445Z,19.84
2022-09-11T16:04:06.334Z,19.95
2022-09-11T16:06:36.419Z,20.01
2022-09-11T16:09:05.503Z,20.02
2022-09-11T16:11:33.050Z,20.07
2022-09-11T16:13:59.840Z,20.16
2022-09-11T16:16:27.141Z,20.24
2022-09-11T16:18:53.896Z,20.48
2022-09-11T16:21:21.648Z,20.17
2022-09-11T16:23:53.593Z,20.01
2022-09-11T16:26:22.336Z,20.13
2022-09-11T16:28:48.653Z,19.99
2022-09-11T16:31:16.028Z,20.19
2022-09-11T16:33:44.307Z,20.09
2022-09-11T16:36:17.298Z,20.06
2022-09-11T16:38:44.983Z,19.95
2022-09-11T16:41:14.600Z,19.88
2022-09-11T16:43:43.711Z,19.83
2022-09-11T16:46:12.224Z,19.78
2022-09-11T16:48:39.560Z,19.70
2022-09-11T16:51:06.740Z,19.67
2022-09-11T16:53:34.911Z,19.65
2022-09-11T16:56:10.541Z,19.64
2022-09-11T16:58:39.714Z,19.61
2022-09-11T17:01:08.350Z,19.58
2022-09-11T17:03:41.435Z,19.54
2022-09-11T17:06:08.115Z,19.46
2022-09-11T17:08:35.111Z,19.44
2022-09-11T17:11:02.209Z,19.43
2022-09-11T17:13:29.173Z,19.35
2022-09-11T17:16:15.418Z,19.31
2022-09-11T17:18:45.808Z,19.24
2022-09-11T17:21:12.287Z,19.20
2022-09-11T17:23:38.722Z,19.07
2022-09-11T17:26:24.215Z,19.01
2022-09-11T17:28:51.500Z,18.93
2022-09-11T17:31:19.371Z,18.82
2022-09-11T17:33:47.192Z,18.76
2022-09-11T17:36:15.545Z,18.71
2022-09-11T17:38:41.892Z,18.62
2022-09-11T17:41:09.211Z,18.52
2022-09-11T17:43:36.910Z,18.37
2022-09-11T17:46:06.337Z,18.27
2022-09-11T17:48:33.050Z,18.23
2022-09-11T17:51:01.512Z,18.16
2022-09-11T17:53:37.710Z,18.07
2022-09-11T17:56:12.100Z,17.92
2022-09-11T17:58:38.744Z,17.84
2022-09-11T18:01:05.377Z,17.73
2022-09-11T18:03:32.641Z,17.68
2022-09-11T18:06:01.426Z,17.64
2022-09-11T18:08:28.476Z,17.55
2022-09-11T18:10:57.309Z,17.52
2022-09-11T18:13:23.787Z,17.43
2022-09-11T18:15:50.263Z,17.27
2022-09-11T18:18:18.394Z,17.17
2022-09-11T18:20:46.028Z,17.05
2022-09-11T18:23:12.477Z,16.84
2022-09-11T18:25:40.356Z,16.78
2022-09-11T18:28:09.770Z,16.76
2022-09-11T18:30:36.905Z,16.70
2022-09-11T18:33:06.712Z,16.63
2022-09-11T18:35:38.831Z,16.56
2022-09-11T18:38:06.931Z,16.50
2022-09-11T18:40:33.623Z,16.45
2022-09-11T18:43:00.217Z,16.38
2022-09-11T18:45:27.017Z,16.28
2022-09-11T18:47:53.481Z,16.20
2022-09-11T18:50:20.815Z,16.18
2022-09-11T18:52:48.246Z,16.15
2022-09-11T18:55:14.768Z,16.08
2022-09-11T18:57:43.887Z,15.97
2022-09-11T19:00:13.217Z,15.88
2022-09-11T19:02:39.847Z,15.81
2022-09-11T19:05:07.213Z,15.72
2022-09-11T19:07:33.551Z,15.66
2022-09-11T19:10:01.100Z,15.60
2022-09-11T19:12:27.398Z,15.52
2022-09-11T19:14:53.691Z,15.54
2022-09-11T19:17:20.137Z,15.53
2022-09-11T19:19:46.858Z,15.50
2022-09-11T19:22:13.998Z,15.32
2022-09-11T19:24:40.385Z,15.20
2022-09-11T19:27:06.885Z,15.13
2022-09-11T19:29:33.248Z,15.08
2022-09-11T19:32:00.337Z,15.05
2022-09-11T19:34:27.028Z,15.04
2022-09-11T19:36:53.364Z,15.04
2022-09-11T19:39:19.790Z,15.01
2022-09-11T19:41:46.346Z,14.97
2022-09-11T19:44:13.809Z,14.87
2022-09-11T19:46:41.415Z,14.78
2022-09-11T19:49:09.164Z,14.61
2022-09-11T19:51:41.776Z,14.51
2022-09-11T19:54:10.389Z,14.43
2022-09-11T19:56:38.174Z,14.44
2022-09-11T19:59:07.074Z,14.40
2022-09-11T20:01:34.030Z,14.33
2022-09-11T20:04:00.881Z,14.27
2022-09-11T20:06:32.458Z,14.29
2022-09-11T20:09:26.880Z,14.29
2022-09-11T20:11:46.380Z,14.31
2022-09-11T20:14:12.777Z,14.28
2022-09-11T20:16:39.223Z,14.28
2022-09-11T20:19:05.685Z,14.24
2022-09-11T20:21:33.484Z,14.21
2022-09-11T20:24:00.498Z,14.18
2022-09-11T20:26:29.230Z,14.14
2022-09-11T20:28:58.282Z,14.05
2022-09-11T20:31:29.708Z,14.07
2022-09-11T20:33:56.213Z,14.03
2022-09-11T20:36:23.425Z,13.92
2022-09-11T20:38:54.386Z,13.86
2022-09-11T20:41:22.932Z,13.80
2022-09-11T20:43:50.027Z,13.75
2022-09-11T20:46:16.583Z,13.75
2022-09-11T20:48:42.972Z,13.76
2022-09-11T20:51:12.988Z,13.73
2022-09-11T20:53:40.678Z,13.67
2022-09-11T20:56:09.705Z,13.56
2022-09-11T20:58:37.386Z,13.39
2022-09-11T21:01:05.434Z,13.37
2022-09-11T21:03:32.103Z,13.29
2022-09-11T21:06:07.053Z,13.31
2022-09-11T21:08:33.624Z,13.26
2022-09-11T21:11:08.670Z,13.24
2022-09-11T21:13:39.151Z,13.20
2022-09-11T21:16:08.406Z,13.15
2022-09-11T21:18:35.621Z,13.12
2022-09-11T21:21:02.361Z,13.16
2022-09-11T21:23:28.760Z,13.20
2022-09-11T21:25:55.497Z,13.19
2022-09-11T21:28:22.077Z,13.21
2022-09-11T21:30:48.515Z,13.12
2022-09-11T21:33:17.270Z,13.04
2022-09-11T21:35:43.657Z,12.98
2022-09-11T21:38:09.971Z,12.90
2022-09-11T21:40:36.403Z,12.95
2022-09-11T21:43:02.718Z,12.95
2022-09-11T21:45:29.169Z,12.86
2022-09-11T21:47:55.490Z,12.80
2022-09-11T21:50:21.931Z,12.83
2022-09-11T21:52:48.263Z,12.79
2022-09-11T21:55:14.707Z,12.75
2022-09-11T21:57:41.068Z,12.67
2022-09-11T22:00:08.093Z,12.58
2022-09-11T22:02:34.645Z,12.48
2022-09-11T22:05:01.062Z,12.41
2022-09-11T22:07:27.588Z,12.38
2022-09-11T22:09:53.943Z,12.36
2022-09-11T22:12:20.269Z,12.31
2022-09-11T22:14:47.198Z,12.32
2022-09-11T22:17:13.577Z,12.27
2022-09-11T22:19:43.287Z,12.32
2022-09-11T22:22:09.774Z,12.23
2022-09-11T22:24:36.177Z,12.11
2022-09-11T22:27:02.844Z,12.08
2022-09-11T22:29:29.253Z,12.06
2022-09-11T22:31:55.547Z,12.04
2022-09-11T22:34:22.032Z,11.99
2022-09-11T22:36:48.667Z,11.96
2022-09-11T22:39:16.076Z,11.90
2022-09-11T22:41:42.558Z,11.82
2022-09-11T22:44:12.057Z,11.76
2022-09-11T22:46:38.660Z,11.77
2022-09-11T22:49:05.276Z,11.75
2022-09-11T22:51:32.476Z,11.76
2022-09-11T22:53:58.750Z,11.76
2022-09-11T22:56:25.222Z,11.73
2022-09-11T22:58:51.609Z,11.74
2022-09-11T23:01:22.009Z,11.73
2022-09-11T23:03:53.296Z,11.73
2022-09-11T23:06:20.230Z,11.71
2022-09-11T23:08:48.036Z,11.69
2022-09-11T23:11:16.582Z,11.72
2022-09-11T23:13:43.310Z,11.76
2022-09-11T23:16:15.723Z,11.68
2022-09-11T23:18:44.002Z,11.63
2022-09-11T23:21:11.252Z,11.62
2022-09-11T23:23:38.565Z,11.60
2022-09-11T23:26:05.005Z,11.55
2022-09-11T23:28:33.857Z,11.49
2022-09-11T23:31:00.584Z,11.43
2022-09-11T23:33:27.305Z,11.42
2022-09-11T23:35:53.728Z,11.41
2022-09-11T23:38:21.949Z,11.38
2022-09-11T23:40:48.295Z,11.40
2022-09-11T23:43:14.731Z,11.43
2022-09-11T23:45:42.390Z,11.47
2022-09-11T23:48:08.882Z,11.46
2022-09-11T23:50:35.172Z,11.39
2022-09-11T23:53:01.860Z,11.30
2022-09-11T23:55:28.312Z,11.24
2022-09-11T23:57:54.931Z,11.19
